createdAt,value
2022-09-28T04:21:38.750Z,977.20
2022-09-28T04:35:14.165Z,976.94
2022-09-28T04:40:21.942Z,976.93
2022-09-28T04:46:33.007Z,976.90
2022-09-28T04:51:40.407Z,976.87
2022-09-28T04:59:36.572Z,976.77
2022-09-28T05:04:36.480Z,976.77
2022-09-28T05:09:38.404Z,976.73
2022-09-28T05:14:36.385Z,976.65
2022-09-28T05:22:43.452Z,976.64
2022-09-28T05:27:43.131Z,976.57
2022-09-28T05:32:43.185Z,976.51
2022-09-28T05:37:42.993Z,976.54
2022-09-28T05:42:42.810Z,976.45
2022-09-28T05:47:42.811Z,976.41
2022-09-28T05:52:42.775Z,976.34
2022-09-28T05:57:42.744Z,976.28
2022-09-28T06:02:42.594Z,976.23
2022-09-28T06:07:42.403Z,976.23
2022-09-28T06:12:45.415Z,976.22
2022-09-28T06:17:42.377Z,976.18
2022-09-28T06:22:42.330Z,976.21
2022-09-28T06:27:42.306Z,976.27
2022-09-28T06:32:43.374Z,976.27
2022-09-28T06:37:42.153Z,976.22
2022-09-28T06:42:42.036Z,976.23
2022-09-28T06:47:42.228Z,976.24
2022-09-28T06:53:59.726Z,976.21
2022-09-28T06:58:59.802Z,976.13
2022-09-28T07:03:59.821Z,976.06
2022-09-28T07:09:15.478Z,976.08
2022-09-28T07:14:00.794Z,976.07
2022-09-28T07:18:59.572Z,976.01
2022-09-28T07:26:07.202Z,975.99
2022-09-28T07:31:04.445Z,976.00
2022-09-28T07:36:04.520Z,975.99
2022-09-28T07:41:04.405Z,976.01
2022-09-28T07:46:04.212Z,976.06
2022-09-28T07:51:03.946Z,976.10
2022-09-28T07:56:04.191Z,976.09
2022-09-28T08:01:04.150Z,976.10
2022-09-28T08:06:14.620Z,976.18
2022-09-28T08:11:03.919Z,976.18
2022-09-28T08:16:07.037Z,976.28
2022-09-28T08:21:03.709Z,976.32
2022-09-28T08:26:03.663Z,976.32
2022-09-28T08:31:03.493Z,976.25
2022-09-28T08:36:04.156Z,976.26
2022-09-28T08:41:03.511Z,976.31
2022-09-28T09:00:32.693Z,976.46
2022-09-28T09:05:32.202Z,976.45
2022-09-28T09:15:38.476Z,976.57
2022-09-28T09:20:38.506Z,976.62
2022-09-28T09:25:38.699Z,976.63
